Airfield :
LOGIN :

Register | Disclaimer

   EN    FR    IT 

 










Legend :    VFR   Marginal VFR   IFR   Intensive IFR   Very Intensive IFR
Visi :
Ceiling :
>= 8 km
>= 3000ft
5 to 8 km
1000 to 3000 ft
1500m to 5 km
500 to 1000 ft
800 to 1500m
200 to 500 ft
< 800m
< 200 ft
Symbols :   Thunderstorms  Fog  Heavy snow  Heavy precipitations  Wind > 20 kt
SIGMETs :     Misc.  Thunderstorms  Icing  Turbulence  Mountain Waves  Volcanic Ashes






- Airport Elevation : 80 ft
- IATA code : LPL


EGGP - Liverpool John Lennon

CURRENT METAR :
  • 270420Z AUTO 14002KT 9999 NCD 03/03 Q1040

EXPIRED METARs :
  • 270350Z AUTO VRB01KT 9999 NCD 03/03 Q1040
  • 270320Z AUTO VRB03KT 9999 NCD 04/03 Q1040
  • 270250Z AUTO 15003KT 9999 NCD 04/03 Q1040
  • 270220Z AUTO VRB02KT 9999 NCD 04/03 Q1040
  • 270150Z AUTO VRB01KT 9999 NCD 05/03 Q1040

TAF TAF EGGP
Valid from the 27 at 00:00 until the 28 at 00:00 UTC


262301Z 2700/2724 24003KT 9999 FEW035
TEMPO 2700/2710 7000
PROB30 2702/2709 4000 BR
PROB30 2718/2724 7000
ATIS : +44 151 907 2000 (option 5 or ext 5150)
Met : +44 871 750 5150



MET'MAP, your aeronautical weather chart ! - Copyright ORBIFLY December 2007 - Disclaimer

ORBIFLY MET'MAP TEAM :

Programming & Development : Alexandra Zaïnal
Concept & original design : Baudouin d'Aumeries
Assistance for programming : Marc-Olivier Méhu
Technical & hardware support : Manuel Goepfert

Contact : metmap@orbifly.com




SOURCES & CREDITS :

   NOAA